sensor_id;sensor_type;location;lat;lon;timestamp;pressure;altitude;pressure_sealevel;temperature;humidity
46583;BME280;32309;48.858;8.252;2024-01-15T00:01:06;99543.22;;;-2.99;83.76
46583;BME280;32309;48.858;8.252;2024-01-15T00:03:07;99536.44;;;-2.97;83.17
46583;BME280;32309;48.858;8.252;2024-01-15T00:05:07;99538.13;;;-2.97;83.57
46583;BME280;32309;48.858;8.252;2024-01-15T00:07:08;99541.50;;;-2.98;83.42
46583;BME280;32309;48.858;8.252;2024-01-15T00:09:08;99533.06;;;-2.97;83.24
46583;BME280;32309;48.858;8.252;2024-01-15T00:11:09;99532.19;;;-2.96;83.59
46583;BME280;32309;48.858;8.252;2024-01-15T00:13:09;99533.88;;;-2.95;83.67
46583;BME280;32309;48.858;8.252;2024-01-15T00:15:09;99532.16;;;-2.95;83.49
46583;BME280;32309;48.858;8.252;2024-01-15T00:17:09;99528.78;;;-2.94;83.74
46583;BME280;32309;48.858;8.252;2024-01-15T00:19:10;99538.06;;;-2.94;83.56
46583;BME280;32309;48.858;8.252;2024-01-15T00:21:13;99535.53;;;-2.93;83.49
46583;BME280;32309;48.858;8.252;2024-01-15T00:23:15;99537.19;;;-2.92;83.67
46583;BME280;32309;48.858;8.252;2024-01-15T00:25:16;99521.97;;;-2.92;84.07
46583;BME280;32309;48.858;8.252;2024-01-15T00:27:16;99526.19;;;-2.91;84.13
46583;BME280;32309;48.858;8.252;2024-01-15T00:29:16;99521.97;;;-2.92;83.80
46583;BME280;32309;48.858;8.252;2024-01-15T00:31:16;99528.75;;;-2.92;83.77
46583;BME280;32309;48.858;8.252;2024-01-15T00:33:17;99522.81;;;-2.90;84.48
46583;BME280;32309;48.858;8.252;2024-01-15T00:35:18;99524.47;;;-2.89;84.08
46583;BME280;32309;48.858;8.252;2024-01-15T00:37:23;99531.22;;;-2.89;84.51
46583;BME280;32309;48.858;8.252;2024-01-15T00:39:24;99532.09;;;-2.89;84.33
46583;BME280;32309;48.858;8.252;2024-01-15T00:41:25;99527.06;;;-2.90;84.43
46583;BME280;32309;48.858;8.252;2024-01-15T00:43:27;99536.31;;;-2.89;84.13
46583;BME280;32309;48.858;8.252;2024-01-15T00:45:27;99537.16;;;-2.89;84.03
46583;BME280;32309;48.858;8.252;2024-01-15T00:47:28;99532.06;;;-2.87;84.07
46583;BME280;32309;48.858;8.252;2024-01-15T00:49:28;99535.44;;;-2.87;84.15
46583;BME280;32309;48.858;8.252;2024-01-15T00:51:28;99530.34;;;-2.87;84.67
46583;BME280;32309;48.858;8.252;2024-01-15T00:53:29;99528.69;;;-2.88;84.59
46583;BME280;32309;48.858;8.252;2024-01-15T00:55:29;99535.44;;;-2.87;83.98
46583;BME280;32309;48.858;8.252;2024-01-15T00:57:29;99538.81;;;-2.86;84.46
46583;BME280;32309;48.858;8.252;2024-01-15T00:59:29;99529.50;;;-2.86;84.34
46583;BME280;32309;48.858;8.252;2024-01-15T01:01:30;99523.63;;;-2.89;84.79
46583;BME280;32309;48.858;8.252;2024-01-15T01:03:30;99522.81;;;-2.90;84.74
46583;BME280;32309;48.858;8.252;2024-01-15T01:05:30;99516.09;;;-2.94;85.02
46583;BME280;32309;48.858;8.252;2024-01-15T01:07:31;99516.97;;;-2.95;84.97
46583;BME280;32309;48.858;8.252;2024-01-15T01:09:31;99511.09;;;-2.97;85.42
46583;BME280;32309;48.858;8.252;2024-01-15T01:11:31;99511.91;;;-2.96;85.30
46583;BME280;32309;48.858;8.252;2024-01-15T01:13:32;99509.41;;;-2.98;85.89
46583;BME280;32309;48.858;8.252;2024-01-15T01:15:32;99511.09;;;-2.97;85.43
46583;BME280;32309;48.858;8.252;2024-01-15T01:17:33;99504.34;;;-2.98;85.52
46583;BME280;32309;48.858;8.252;2024-01-15T01:19:33;99500.97;;;-3.00;86.45
46583;BME280;32309;48.858;8.252;2024-01-15T01:21:33;99505.19;;;-2.99;85.93
46583;BME280;32309;48.858;8.252;2024-01-15T01:23:34;99500.97;;;-3.00;86.29
46583;BME280;32309;48.858;8.252;2024-01-15T01:25:34;99504.34;;;-2.98;85.99
46583;BME280;32309;48.858;8.252;2024-01-15T01:27:37;99498.44;;;-3.00;86.27
46583;BME280;32309;48.858;8.252;2024-01-15T01:29:38;99495.88;;;-2.98;85.83
46583;BME280;32309;48.858;8.252;2024-01-15T01:31:42;99504.34;;;-2.99;86.37
46583;BME280;32309;48.858;8.252;2024-01-15T01:33:51;99504.34;;;-3.01;86.52
46583;BME280;32309;48.858;8.252;2024-01-15T01:35:51;99502.72;;;-3.02;86.01
46583;BME280;32309;48.858;8.252;2024-01-15T01:37:53;99501.81;;;-2.99;85.76
46583;BME280;32309;48.858;8.252;2024-01-15T01:39:53;99501.81;;;-2.99;86.02
46583;BME280;32309;48.858;8.252;2024-01-15T01:41:53;99500.13;;;-2.99;86.33
46583;BME280;32309;48.858;8.252;2024-01-15T01:43:53;99491.69;;;-3.01;86.25
46583;BME280;32309;48.858;8.252;2024-01-15T01:45:54;99490.84;;;-3.02;86.50
46583;BME280;32309;48.858;8.252;2024-01-15T01:47:59;99490.03;;;-3.04;86.66
46583;BME280;32309;48.858;8.252;2024-01-15T01:50:01;99490.84;;;-3.02;86.25
46583;BME280;32309;48.858;8.252;2024-01-15T01:52:02;99491.69;;;-3.01;86.36
46583;BME280;32309;48.858;8.252;2024-01-15T01:54:05;99487.50;;;-3.04;86.68
46583;BME280;32309;48.858;8.252;2024-01-15T01:56:08;99484.97;;;-3.02;86.94
46583;BME280;32309;48.858;8.252;2024-01-15T01:58:09;99496.75;;;-2.99;86.91
46583;BME280;32309;48.858;8.252;2024-01-15T02:00:10;99492.50;;;-2.99;86.73
46583;BME280;32309;48.858;8.252;2024-01-15T02:02:10;99496.75;;;-2.99;86.70
46583;BME280;32309;48.858;8.252;2024-01-15T02:04:11;99488.25;;;-2.98;86.76
46583;BME280;32309;48.858;8.252;2024-01-15T02:06:11;99488.25;;;-2.98;87.02
46583;BME280;32309;48.858;8.252;2024-01-15T02:08:12;99490.81;;;-2.98;87.01
46583;BME280;32309;48.858;8.252;2024-01-15T02:10:12;99484.88;;;-2.97;87.44
46583;BME280;32309;48.858;8.252;2024-01-15T02:12:13;99482.34;;;-2.97;86.92
46583;BME280;32309;48.858;8.252;2024-01-15T02:14:13;99480.66;;;-2.97;87.16
46583;BME280;32309;48.858;8.252;2024-01-15T02:16:14;99477.28;;;-2.99;87.41
46583;BME280;32309;48.858;8.252;2024-01-15T02:18:14;99473.06;;;-2.97;87.42
46583;BME280;32309;48.858;8.252;2024-01-15T02:20:15;99470.53;;;-2.97;87.48
46583;BME280;32309;48.858;8.252;2024-01-15T02:22:15;99479.75;;;-2.94;87.81
46583;BME280;32309;48.858;8.252;2024-01-15T02:24:15;99473.00;;;-2.94;87.29
46583;BME280;32309;48.858;8.252;2024-01-15T02:26:15;99472.16;;;-2.93;87.58
46583;BME280;32309;48.858;8.252;2024-01-15T02:28:16;99478.00;;;-2.91;87.16
46583;BME280;32309;48.858;8.252;2024-01-15T02:30:17;99479.69;;;-2.90;88.03
46583;BME280;32309;48.858;8.252;2024-01-15T02:32:17;99474.63;;;-2.90;87.21
46583;BME280;32309;48.858;8.252;2024-01-15T02:34:17;99477.97;;;-2.89;87.27
46583;BME280;32309;48.858;8.252;2024-01-15T02:36:18;99477.13;;;-2.88;87.79
46583;BME280;32309;48.858;8.252;2024-01-15T02:38:18;99472.03;;;-2.87;87.42
46583;BME280;32309;48.858;8.252;2024-01-15T02:40:18;99477.97;;;-2.88;87.88
46583;BME280;32309;48.858;8.252;2024-01-15T02:42:19;99478.78;;;-2.86;87.83
46583;BME280;32309;48.858;8.252;2024-01-15T02:44:22;99467.81;;;-2.86;87.57
46583;BME280;32309;48.858;8.252;2024-01-15T02:46:22;99467.81;;;-2.86;88.29
46583;BME280;32309;48.858;8.252;2024-01-15T02:48:26;99469.47;;;-2.85;87.78
46583;BME280;32309;48.858;8.252;2024-01-15T02:50:26;99472.78;;;-2.81;87.82
46583;BME280;32309;48.858;8.252;2024-01-15T02:52:26;99471.13;;;-2.82;88.01
46583;BME280;32309;48.858;8.252;2024-01-15T02:54:26;99470.22;;;-2.80;87.76
46583;BME280;32309;48.858;8.252;2024-01-15T02:56:27;99469.41;;;-2.80;88.28
46583;BME280;32309;48.858;8.252;2024-01-15T02:58:27;99467.69;;;-2.78;87.95
46583;BME280;32309;48.858;8.252;2024-01-15T03:00:27;99461.75;;;-2.77;88.04
46583;BME280;32309;48.858;8.252;2024-01-15T03:02:27;99457.53;;;-2.77;88.09
46583;BME280;32309;48.858;8.252;2024-01-15T03:04:28;99465.94;;;-2.75;88.13
46583;BME280;32309;48.858;8.252;2024-01-15T03:06:28;99463.38;;;-2.75;87.75
46583;BME280;32309;48.858;8.252;2024-01-15T03:08:28;99453.19;;;-2.70;87.34
46583;BME280;32309;48.858;8.252;2024-01-15T03:10:29;99452.34;;;-2.69;87.61
46583;BME280;32309;48.858;8.252;2024-01-15T03:12:29;99461.59;;;-2.68;87.65
46583;BME280;32309;48.858;8.252;2024-01-15T03:14:30;99453.97;;;-2.66;87.81
46583;BME280;32309;48.858;8.252;2024-01-15T03:16:30;99449.72;;;-2.66;87.38
46583;BME280;32309;48.858;8.252;2024-01-15T03:18:30;99444.63;;;-2.64;87.19
46583;BME280;32309;48.858;8.252;2024-01-15T03:20:30;99449.69;;;-2.64;87.67
46583;BME280;32309;48.858;8.252;2024-01-15T03:22:31;99441.19;;;-2.62;87.09
46583;BME280;32309;48.858;8.252;2024-01-15T03:24:31;99453.84;;;-2.60;87.13
46583;BME280;32309;48.858;8.252;2024-01-15T03:26:31;99446.25;;;-2.60;87.37
46583;BME280;32309;48.858;8.252;2024-01-15T03:28:32;99439.50;;;-2.60;87.39
46583;BME280;32309;48.858;8.252;2024-01-15T03:30:32;99440.31;;;-2.59;87.82
46583;BME280;32309;48.858;8.252;2024-01-15T03:32:32;99442.00;;;-2.58;87.67
46583;BME280;32309;48.858;8.252;2024-01-15T03:34:32;99449.56;;;-2.57;87.27
46583;BME280;32309;48.858;8.252;2024-01-15T03:36:33;99449.53;;;-2.55;87.28
46583;BME280;32309;48.858;8.252;2024-01-15T03:38:33;99439.41;;;-2.55;87.49
46583;BME280;32309;48.858;8.252;2024-01-15T03:40:33;99437.72;;;-2.55;87.30
46583;BME280;32309;48.858;8.252;2024-01-15T03:42:34;99437.69;;;-2.53;87.01
46583;BME280;32309;48.858;8.252;2024-01-15T03:44:34;99440.19;;;-2.52;86.84
46583;BME280;32309;48.858;8.252;2024-01-15T03:46:34;99444.38;;;-2.49;87.09
46583;BME280;32309;48.858;8.252;2024-01-15T03:48:40;99440.97;;;-2.48;86.75
46583;BME280;32309;48.858;8.252;2024-01-15T03:50:41;99443.50;;;-2.46;86.87
46583;BME280;32309;48.858;8.252;2024-01-15T03:52:41;99425.69;;;-2.45;87.17
46583;BME280;32309;48.858;8.252;2024-01-15T03:54:41;99429.91;;;-2.44;87.07
46583;BME280;32309;48.858;8.252;2024-01-15T03:56:42;99422.28;;;-2.44;87.10
46583;BME280;32309;48.858;8.252;2024-01-15T03:58:42;99419.72;;;-2.42;87.23
46583;BME280;32309;48.858;8.252;2024-01-15T04:00:42;99403.66;;;-2.41;87.12
46583;BME280;32309;48.858;8.252;2024-01-15T04:02:43;99414.63;;;-2.41;86.95
46583;BME280;32309;48.858;8.252;2024-01-15T04:04:44;99406.97;;;-2.39;87.63
46583;BME280;32309;48.858;8.252;2024-01-15T04:06:48;99401.91;;;-2.39;87.62
46583;BME280;32309;48.858;8.252;2024-01-15T04:08:48;99401.03;;;-2.38;87.51
46583;BME280;32309;48.858;8.252;2024-01-15T04:10:49;99396.78;;;-2.38;87.54
46583;BME280;32309;48.858;8.252;2024-01-15T04:12:49;99400.16;;;-2.36;87.72
46583;BME280;32309;48.858;8.252;2024-01-15T04:14:49;99402.69;;;-2.36;87.58
46583;BME280;32309;48.858;8.252;2024-01-15T04:16:51;99399.28;;;-2.35;87.74
46583;BME280;32309;48.858;8.252;2024-01-15T04:18:51;99395.00;;;-2.32;87.87
46583;BME280;32309;48.858;8.252;2024-01-15T04:20:51;99400.94;;;-2.32;88.10
46583;BME280;32309;48.858;8.252;2024-01-15T04:22:52;99395.84;;;-2.32;88.36
46583;BME280;32309;48.858;8.252;2024-01-15T04:24:52;99400.91;;;-2.30;88.22
46583;BME280;32309;48.858;8.252;2024-01-15T04:26:52;99395.75;;;-2.27;87.66
46583;BME280;32309;48.858;8.252;2024-01-15T04:28:53;99391.53;;;-2.28;88.23
46583;BME280;32309;48.858;8.252;2024-01-15T04:30:53;99389.84;;;-2.28;88.27
46583;BME280;32309;48.858;8.252;2024-01-15T04:32:53;99394.84;;;-2.25;87.86
46583;BME280;32309;48.858;8.252;2024-01-15T04:34:54;99395.72;;;-2.26;88.68
46583;BME280;32309;48.858;8.252;2024-01-15T04:36:55;99391.50;;;-2.25;88.97
46583;BME280;32309;48.858;8.252;2024-01-15T04:38:58;99391.44;;;-2.22;88.37
46583;BME280;32309;48.858;8.252;2024-01-15T04:40:58;99385.53;;;-2.23;88.76
46583;BME280;32309;48.858;8.252;2024-01-15T04:42:59;99388.06;;;-2.23;88.88
46583;BME280;32309;48.858;8.252;2024-01-15T04:44:59;99388.88;;;-2.22;88.67
46583;BME280;32309;48.858;8.252;2024-01-15T04:46:59;99391.47;;;-2.24;89.29
46583;BME280;32309;48.858;8.252;2024-01-15T04:48:59;99382.13;;;-2.23;88.98
46583;BME280;32309;48.858;8.252;2024-01-15T04:51:00;99390.56;;;-2.21;88.84
46583;BME280;32309;48.858;8.252;2024-01-15T04:53:00;99390.56;;;-2.21;88.70
46583;BME280;32309;48.858;8.252;2024-01-15T04:55:00;99388.00;;;-2.20;88.86
46583;BME280;32309;48.858;8.252;2024-01-15T04:57:01;99388.81;;;-2.19;88.41
46583;BME280;32309;48.858;8.252;2024-01-15T04:59:02;99384.63;;;-2.20;88.88
46583;BME280;32309;48.858;8.252;2024-01-15T05:01:02;99387.97;;;-2.18;88.70
46583;BME280;32309;48.858;8.252;2024-01-15T05:03:03;99385.38;;;-2.17;88.50
46583;BME280;32309;48.858;8.252;2024-01-15T05:05:04;99382.88;;;-2.18;88.09
46583;BME280;32309;48.858;8.252;2024-01-15T05:07:04;99365.16;;;-2.20;88.73
46583;BME280;32309;48.858;8.252;2024-01-15T05:09:04;99362.59;;;-2.20;88.35
46583;BME280;32309;48.858;8.252;2024-01-15T05:11:05;99357.53;;;-2.20;88.40
46583;BME280;32309;48.858;8.252;2024-01-15T05:13:05;99346.50;;;-2.19;88.52
46583;BME280;32309;48.858;8.252;2024-01-15T05:15:05;99356.66;;;-2.19;88.58
46583;BME280;32309;48.858;8.252;2024-01-15T05:17:06;99347.34;;;-2.18;88.52
46583;BME280;32309;48.858;8.252;2024-01-15T05:19:07;99348.19;;;-2.19;88.79
46583;BME280;32309;48.858;8.252;2024-01-15T05:21:07;99346.44;;;-2.15;87.93
46583;BME280;32309;48.858;8.252;2024-01-15T05:23:08;99338.88;;;-2.17;88.20
46583;BME280;32309;48.858;8.252;2024-01-15T05:25:08;99340.59;;;-2.19;88.80
46583;BME280;32309;48.858;8.252;2024-01-15T05:27:08;99340.59;;;-2.19;88.72
46583;BME280;32309;48.858;8.252;2024-01-15T05:29:11;99332.97;;;-2.18;88.26
46583;BME280;32309;48.858;8.252;2024-01-15T05:31:12;99330.44;;;-2.18;88.78
46583;BME280;32309;48.858;8.252;2024-01-15T05:33:12;99333.81;;;-2.19;88.33
46583;BME280;32309;48.858;8.252;2024-01-15T05:35:12;99333.78;;;-2.17;88.16
46583;BME280;32309;48.858;8.252;2024-01-15T05:37:13;99330.34;;;-2.14;88.03
46583;BME280;32309;48.858;8.252;2024-01-15T05:39:13;99327.81;;;-2.14;87.87
46583;BME280;32309;48.858;8.252;2024-01-15T05:41:15;99322.72;;;-2.14;88.43
46583;BME280;32309;48.858;8.252;2024-01-15T05:43:15;99315.97;;;-2.15;88.12
46583;BME280;32309;48.858;8.252;2024-01-15T05:45:16;99315.13;;;-2.14;88.45
46583;BME280;32309;48.858;8.252;2024-01-15T05:47:16;99322.69;;;-2.13;87.81
46583;BME280;32309;48.858;8.252;2024-01-15T05:49:17;99326.91;;;-2.12;88.14
46583;BME280;32309;48.858;8.252;2024-01-15T05:51:17;99326.06;;;-2.11;87.86
46583;BME280;32309;48.858;8.252;2024-01-15T05:53:17;99326.03;;;-2.09;87.82
46583;BME280;32309;48.858;8.252;2024-01-15T05:55:21;99322.63;;;-2.08;88.14
46583;BME280;32309;48.858;8.252;2024-01-15T05:57:21;99320.91;;;-2.08;87.96
46583;BME280;32309;48.858;8.252;2024-01-15T05:59:21;99318.38;;;-2.08;87.80
46583;BME280;32309;48.858;8.252;2024-01-15T06:01:22;99317.53;;;-2.08;87.99
46583;BME280;32309;48.858;8.252;2024-01-15T06:03:22;99304.84;;;-2.08;87.67
46583;BME280;32309;48.858;8.252;2024-01-15T06:05:22;99309.91;;;-2.08;87.65
46583;BME280;32309;48.858;8.252;2024-01-15T06:07:23;99295.50;;;-2.08;87.62
46583;BME280;32309;48.858;8.252;2024-01-15T06:09:23;99304.00;;;-2.09;87.86
46583;BME280;32309;48.858;8.252;2024-01-15T06:11:29;99298.09;;;-2.09;87.75
46583;BME280;32309;48.858;8.252;2024-01-15T06:13:29;99304.88;;;-2.11;88.01
46583;BME280;32309;48.858;8.252;2024-01-15T06:15:30;99288.78;;;-2.10;88.00
46583;BME280;32309;48.858;8.252;2024-01-15T06:17:30;99291.34;;;-2.10;88.02
46583;BME280;32309;48.858;8.252;2024-01-15T06:19:31;99293.88;;;-2.10;87.75
46583;BME280;32309;48.858;8.252;2024-01-15T06:21:31;99295.59;;;-2.11;87.97
46583;BME280;32309;48.858;8.252;2024-01-15T06:23:32;99290.50;;;-2.11;88.13
46583;BME280;32309;48.858;8.252;2024-01-15T06:25:32;99288.72;;;-2.07;87.73
46583;BME280;32309;48.858;8.252;2024-01-15T06:27:32;99297.06;;;-2.02;87.36
46583;BME280;32309;48.858;8.252;2024-01-15T06:29:33;99299.63;;;-2.02;87.53
46583;BME280;32309;48.858;8.252;2024-01-15T06:31:33;99300.44;;;-2.00;87.42
46583;BME280;32309;48.858;8.252;2024-01-15T06:33:33;99299.56;;;-1.99;87.25
46583;BME280;32309;48.858;8.252;2024-01-15T06:35:33;99303.75;;;-1.96;87.22
46583;BME280;32309;48.858;8.252;2024-01-15T06:37:34;99297.78;;;-1.95;87.49
46583;BME280;32309;48.858;8.252;2024-01-15T06:39:34;99289.28;;;-1.94;87.35
46583;BME280;32309;48.858;8.252;2024-01-15T06:41:35;99281.69;;;-1.94;87.25
46583;BME280;32309;48.858;8.252;2024-01-15T06:43:41;99279.91;;;-1.91;87.05
46583;BME280;32309;48.858;8.252;2024-01-15T06:45:41;99285.81;;;-1.89;87.02
46583;BME280;32309;48.858;8.252;2024-01-15T06:47:41;99291.63;;;-1.85;86.67
46583;BME280;32309;48.858;8.252;2024-01-15T06:49:42;99276.34;;;-1.84;86.58
46583;BME280;32309;48.858;8.252;2024-01-15T06:51:42;99265.31;;;-1.82;86.63
46583;BME280;32309;48.858;8.252;2024-01-15T06:53:42;99267.81;;;-1.79;86.50
46583;BME280;32309;48.858;8.252;2024-01-15T06:55:43;99272.91;;;-1.79;86.30
46583;BME280;32309;48.858;8.252;2024-01-15T06:57:43;99267.69;;;-1.75;85.99
46583;BME280;32309;48.858;8.252;2024-01-15T06:59:43;99268.50;;;-1.73;86.06
46583;BME280;32309;48.858;8.252;2024-01-15T07:01:45;99283.72;;;-1.71;85.86
46583;BME280;32309;48.858;8.252;2024-01-15T07:03:45;99285.34;;;-1.69;85.83
46583;BME280;32309;48.858;8.252;2024-01-15T07:05:46;99286.13;;;-1.65;85.56
46583;BME280;32309;48.858;8.252;2024-01-15T07:07:46;99293.66;;;-1.62;85.34
46583;BME280;32309;48.858;8.252;2024-01-15T07:09:47;99295.34;;;-1.61;85.24
46583;BME280;32309;48.858;8.252;2024-01-15T07:11:47;99298.66;;;-1.59;84.98
46583;BME280;32309;48.858;8.252;2024-01-15T07:13:47;99291.88;;;-1.58;85.16
46583;BME280;32309;48.858;8.252;2024-01-15T07:15:48;99298.59;;;-1.56;84.89
46583;BME280;32309;48.858;8.252;2024-01-15T07:17:54;99306.19;;;-1.54;85.38
46583;BME280;32309;48.858;8.252;2024-01-15T07:19:54;99305.28;;;-1.53;84.96
46583;BME280;32309;48.858;8.252;2024-01-15T07:21:55;99308.69;;;-1.53;84.91
46583;BME280;32309;48.858;8.252;2024-01-15T07:23:55;99319.72;;;-1.54;84.78
46583;BME280;32309;48.858;8.252;2024-01-15T07:25:57;99320.59;;;-1.55;84.70
46583;BME280;32309;48.858;8.252;2024-01-15T07:27:58;99332.38;;;-1.52;85.13
46583;BME280;32309;48.858;8.252;2024-01-15T07:29:58;99326.56;;;-1.56;84.64
46583;BME280;32309;48.858;8.252;2024-01-15T07:31:58;99335.91;;;-1.58;84.78
46583;BME280;32309;48.858;8.252;2024-01-15T07:33:59;99335.09;;;-1.58;85.27
46583;BME280;32309;48.858;8.252;2024-01-15T07:36:00;99341.03;;;-1.59;85.34
46583;BME280;32309;48.858;8.252;2024-01-15T07:38:01;99330.06;;;-1.61;85.14
46583;BME280;32309;48.858;8.252;2024-01-15T07:40:02;99336.00;;;-1.62;85.22
46583;BME280;32309;48.858;8.252;2024-01-15T07:42:04;99343.63;;;-1.62;85.53
46583;BME280;32309;48.858;8.252;2024-01-15T07:44:05;99346.16;;;-1.62;85.52
46583;BME280;32309;48.858;8.252;2024-01-15T07:46:05;99351.28;;;-1.64;85.94
46583;BME280;32309;48.858;8.252;2024-01-15T07:48:07;99340.28;;;-1.64;85.95
46583;BME280;32309;48.858;8.252;2024-01-15T07:50:07;99340.38;;;-1.68;85.93
46583;BME280;32309;48.858;8.252;2024-01-15T07:52:07;99347.09;;;-1.67;85.94
46583;BME280;32309;48.858;8.252;2024-01-15T07:54:08;99348.00;;;-1.69;85.88
46583;BME280;32309;48.858;8.252;2024-01-15T07:56:08;99340.50;;;-1.74;86.04
46583;BME280;32309;48.858;8.252;2024-01-15T07:58:08;99336.25;;;-1.73;85.97
46583;BME280;32309;48.858;8.252;2024-01-15T08:00:26;99345.63;;;-1.75;86.12
46583;BME280;32309;48.858;8.252;2024-01-15T08:02:30;99339.69;;;-1.76;86.47
46583;BME280;32309;48.858;8.252;2024-01-15T08:04:31;99338.88;;;-1.76;86.23
46583;BME280;32309;48.858;8.252;2024-01-15T08:06:32;99332.06;;;-1.76;86.24
46583;BME280;32309;48.858;8.252;2024-01-15T08:08:32;99339.69;;;-1.76;86.47
46583;BME280;32309;48.858;8.252;2024-01-15T08:10:53;99326.19;;;-1.78;86.28
46583;BME280;32309;48.858;8.252;2024-01-15T08:12:59;99326.16;;;-1.76;86.98
46583;BME280;32309;48.858;8.252;2024-01-15T08:14:59;99326.16;;;-1.76;87.00
46583;BME280;32309;48.858;8.252;2024-01-15T08:16:59;99320.22;;;-1.75;87.23
46583;BME280;32309;48.858;8.252;2024-01-15T08:19:01;99323.56;;;-1.75;86.73
46583;BME280;32309;48.858;8.252;2024-01-15T08:21:01;99323.56;;;-1.75;86.92
46583;BME280;32309;48.858;8.252;2024-01-15T08:23:03;99319.38;;;-1.76;87.39
46583;BME280;32309;48.858;8.252;2024-01-15T08:25:06;99325.25;;;-1.74;87.48
46583;BME280;32309;48.858;8.252;2024-01-15T08:27:09;99321.88;;;-1.74;87.79
46583;BME280;32309;48.858;8.252;2024-01-15T08:29:10;99329.47;;;-1.74;87.86
46583;BME280;32309;48.858;8.252;2024-01-15T08:31:11;99319.22;;;-1.70;87.48
46583;BME280;32309;48.858;8.252;2024-01-15T08:33:17;99322.59;;;-1.69;87.92
46583;BME280;32309;48.858;8.252;2024-01-15T08:35:18;99314.97;;;-1.69;88.06
46583;BME280;32309;48.858;8.252;2024-01-15T08:37:22;99303.13;;;-1.69;87.97
46583;BME280;32309;48.858;8.252;2024-01-15T08:39:22;99301.34;;;-1.65;87.65
46583;BME280;32309;48.858;8.252;2024-01-15T08:41:23;99298.81;;;-1.65;88.08
46583;BME280;32309;48.858;8.252;2024-01-15T08:43:26;99307.31;;;-1.66;87.85
46583;BME280;32309;48.858;8.252;2024-01-15T08:45:31;99310.59;;;-1.62;87.80
46583;BME280;32309;48.858;8.252;2024-01-15T08:47:31;99312.22;;;-1.60;87.66
46583;BME280;32309;48.858;8.252;2024-01-15T08:49:34;99303.72;;;-1.59;88.09
46583;BME280;32309;48.858;8.252;2024-01-15T08:51:37;99291.00;;;-1.57;87.57
46583;BME280;32309;48.858;8.252;2024-01-15T08:53:39;99296.06;;;-1.56;87.62
46583;BME280;32309;48.858;8.252;2024-01-15T08:55:39;99295.13;;;-1.53;87.77
46583;BME280;32309;48.858;8.252;2024-01-15T08:57:40;99289.19;;;-1.52;87.81
46583;BME280;32309;48.858;8.252;2024-01-15T08:59:40;99292.53;;;-1.50;87.67
46583;BME280;32309;48.858;8.252;2024-01-15T09:01:52;99287.41;;;-1.48;87.13
46583;BME280;32309;48.858;8.252;2024-01-15T09:04:12;99284.00;;;-1.47;87.17
46583;BME280;32309;48.858;8.252;2024-01-15T09:06:13;99279.69;;;-1.44;86.96
46583;BME280;32309;48.858;8.252;2024-01-15T09:08:23;99277.09;;;-1.42;87.19
46583;BME280;32309;48.858;8.252;2024-01-15T09:10:23;99281.28;;;-1.40;87.73
46583;BME280;32309;48.858;8.252;2024-01-15T09:12:27;99276.16;;;-1.38;87.40
46583;BME280;32309;48.858;8.252;2024-01-15T09:14:30;99275.25;;;-1.36;87.44
46583;BME280;32309;48.858;8.252;2024-01-15T09:16:34;99265.91;;;-1.35;87.76
46583;BME280;32309;48.858;8.252;2024-01-15T09:18:34;99257.41;;;-1.34;87.53
46583;BME280;32309;48.858;8.252;2024-01-15T09:20:35;99267.53;;;-1.32;87.42
46583;BME280;32309;48.858;8.252;2024-01-15T09:22:37;99260.72;;;-1.30;87.54
46583;BME280;32309;48.858;8.252;2024-01-15T09:24:49;99253.88;;;-1.28;87.85
46583;BME280;32309;48.858;8.252;2024-01-15T09:26:52;99251.31;;;-1.28;87.85
46583;BME280;32309;48.858;8.252;2024-01-15T09:28:53;99251.22;;;-1.24;87.47
46583;BME280;32309;48.858;8.252;2024-01-15T09:30:53;99253.69;;;-1.21;87.66
46583;BME280;32309;48.858;8.252;2024-01-15T09:32:53;99252.75;;;-1.18;87.89
46583;BME280;32309;48.858;8.252;2024-01-15T09:34:53;99248.44;;;-1.14;87.42
46583;BME280;32309;48.858;8.252;2024-01-15T09:36:54;99250.94;;;-1.13;88.33
46583;BME280;32309;48.858;8.252;2024-01-15T09:38:54;99241.53;;;-1.09;88.30
46583;BME280;32309;48.858;8.252;2024-01-15T09:40:54;99248.25;;;-1.07;88.21
46583;BME280;32309;48.858;8.252;2024-01-15T09:42:58;99249.03;;;-1.05;88.13
46583;BME280;32309;48.858;8.252;2024-01-15T09:44:59;99243.88;;;-1.03;87.93
46583;BME280;32309;48.858;8.252;2024-01-15T09:47:04;99252.31;;;-1.01;88.04
46583;BME280;32309;48.858;8.252;2024-01-15T09:49:05;99241.28;;;-1.00;88.04
46583;BME280;32309;48.858;8.252;2024-01-15T09:51:05;99244.59;;;-0.98;87.33
46583;BME280;32309;48.858;8.252;2024-01-15T09:53:10;99247.16;;;-0.98;87.38
46583;BME280;32309;48.858;8.252;2024-01-15T09:55:15;99240.41;;;-0.99;87.62
46583;BME280;32309;48.858;8.252;2024-01-15T09:57:16;99242.91;;;-0.97;87.26
46583;BME280;32309;48.858;8.252;2024-01-15T09:59:16;99239.47;;;-0.95;87.65
46583;BME280;32309;48.858;8.252;2024-01-15T10:01:18;99246.28;;;-0.97;87.92
46583;BME280;32309;48.858;8.252;2024-01-15T10:03:20;99246.28;;;-0.97;88.51
46583;BME280;32309;48.858;8.252;2024-01-15T10:05:21;99225.94;;;-0.97;88.69
46583;BME280;32309;48.858;8.252;2024-01-15T10:07:21;99232.75;;;-0.97;89.56
46583;BME280;32309;48.858;8.252;2024-01-15T10:09:23;99228.56;;;-1.00;91.32
46583;BME280;32309;48.858;8.252;2024-01-15T10:11:24;99216.75;;;-1.03;92.25
46583;BME280;32309;48.858;8.252;2024-01-15T10:13:24;99219.34;;;-1.04;93.48
46583;BME280;32309;48.858;8.252;2024-01-15T10:15:27;99218.63;;;-1.09;94.63
46583;BME280;32309;48.858;8.252;2024-01-15T10:17:28;99219.59;;;-1.13;95.21
46583;BME280;32309;48.858;8.252;2024-01-15T10:19:28;99213.63;;;-1.12;94.61
46583;BME280;32309;48.858;8.252;2024-01-15T10:21:33;99207.75;;;-1.14;95.62
46583;BME280;32309;48.858;8.252;2024-01-15T10:26:00;99206.16;;;-1.19;96.71
46583;BME280;32309;48.858;8.252;2024-01-15T10:28:01;99207.88;;;-1.19;96.99
46583;BME280;32309;48.858;8.252;2024-01-15T10:30:03;99208.72;;;-1.19;97.78
46583;BME280;32309;48.858;8.252;2024-01-15T10:32:08;99200.16;;;-1.16;96.89
46583;BME280;32309;48.858;8.252;2024-01-15T10:34:09;99203.53;;;-1.15;97.80
46583;BME280;32309;48.858;8.252;2024-01-15T10:36:12;99199.25;;;-1.13;97.56
46583;BME280;32309;48.858;8.252;2024-01-15T10:38:12;99194.19;;;-1.13;97.94
46583;BME280;32309;48.858;8.252;2024-01-15T10:40:13;99189.91;;;-1.13;97.09
46583;BME280;32309;48.858;8.252;2024-01-15T10:42:13;99192.44;;;-1.13;97.35
46583;BME280;32309;48.858;8.252;2024-01-15T10:44:14;99194.09;;;-1.10;97.15